Etusivu
METAR-TAF:

METAR-TAF

Lentoasemat :

El Salvador, El Salvador

Leveyspiiri: 13-26N, Pituuspiiri: 089-03W, korkeus merenpinnasta: 25 m

Tämänhetkinen sää

Tämä raportti tehtiin 46 minuuttia sitten, kello 10.50 UTC
Tuuli 16 kn pohjoisesta/koillisesta puuskistuen 30 kn:hen, vaihdellen luoteen ja koillisen välillä
Lämpötila 23°C
Kosteus 44%
Ilmanpaine 1014 hPa
Näkyvyys 10 km tai enemmän
ei pilviä alle 1500 m:ssä eikä cumulonimbus-pilviä

METAR: MSLP 111050Z 02016G30KT 320V050 CAVOK 23/10 Q1014 A2994 NOSIG

Aika: 05:36 (11:36 UTC)

Sääennuste

Tämä raportti tehtiin 8 tuntia ja 11 minuuttia sitten, kello 03.25 UTC
Ennuste voimassa 11. päivästä klo 06 UTC - 12. päivään klo 06 UTC
Tuuli 20 kn pohjoisesta/koillisesta puuskistuen 30 kn:hen
Näkyvyys 10 km tai enemmän
ei pilviä alle 1500 m:ssä eikä cumulonimbus-pilviä

TAF: MSLP 110325Z 1106/1206 02020G30KT CAVOK TX29/1118Z TN20/1111Z

Säähavainnot ja -ennusteet yli 4000 lentoasemalta (METAR- ja TAF-raportit).

Käytössä olevat sääasemat on merkitty karttaan keltaisilla ja punaisilla pisteillä.

Aseta hiiri pisteen päälle nähdäksesi sääaseman nimen.

Klikkaa sitten nähdäksesi säähavainnot ja -ennusteet.

Kartan vaihtaminen: klikkaa mustalla rastilla varustettuja vihreitä pisteitä, niin voit zoomata sisään; viivalla varustettua vihreää pistettä, niin voit zoomata ulos tai vihreitä nuolia, niin pääset viereisille kartoille.


METAR-TAF: